Time;durP1;ratioP1;P1;durP2;ratioP2;P2;SDS_P1;SDS_P2;PMS_P1;PMS_P2;Temp;Humidity;BMP_temperature;BMP_pressure;BME280_temperature;BME280_humidity;BME280_pressure;Samples;Min_cycle;Max_cycle;Signal;HPM_P1;HPM_P2
2022/07/24 00:01:45;;;;;;;8.10;6.80;;;23.30;99.90;;;;;;5105414;28;20083;-85
2022/07/24 00:04:10;;;;;;;12.55;7.45;;;23.20;99.90;;;;;;5106586;28;20024;-86
2022/07/24 00:06:36;;;;;;;9.27;6.82;;;23.10;99.90;;;;;;5107552;28;20028;-86
2022/07/24 00:09:04;;;;;;;11.75;6.72;;;23.10;99.90;;;;;;5106697;28;20027;-82
2022/07/24 00:11:29;;;;;;;9.32;6.55;;;23.00;99.90;;;;;;5105603;28;20111;-84
2022/07/24 00:13:55;;;;;;;8.45;7.22;;;23.00;99.90;;;;;;5095524;28;20162;-85
2022/07/24 00:16:21;;;;;;;9.38;7.30;;;22.80;99.90;;;;;;5090788;28;20024;-84
2022/07/24 00:18:46;;;;;;;8.32;7.28;;;22.80;99.90;;;;;;5091505;28;20497;-84
2022/07/24 00:21:12;;;;;;;12.25;7.80;;;22.70;99.90;;;;;;5093022;28;20024;-84
2022/07/24 00:23:38;;;;;;;8.75;6.38;;;22.70;99.90;;;;;;5091429;28;20028;-85
2022/07/24 00:26:04;;;;;;;8.23;6.55;;;22.70;99.90;;;;;;5091249;28;20037;-83
2022/07/24 00:28:29;;;;;;;8.05;6.40;;;22.70;99.90;;;;;;5090719;28;20029;-85
2022/07/24 00:30:55;;;;;;;7.03;5.88;;;22.70;99.90;;;;;;5092156;28;20039;-85
2022/07/24 00:33:21;;;;;;;6.32;4.82;;;22.70;99.90;;;;;;5093671;28;20020;-85
2022/07/24 00:35:47;;;;;;;7.85;4.53;;;22.80;99.90;;;;;;5091374;28;20024;-91
2022/07/24 00:38:12;;;;;;;5.72;4.82;;;22.80;99.90;;;;;;5092437;28;20055;-89
2022/07/24 00:40:38;;;;;;;12.82;5.80;;;23.00;99.90;;;;;;5093315;28;20024;-87
2022/07/24 00:43:04;;;;;;;12.98;6.82;;;23.00;99.90;;;;;;5092802;28;20082;-87
2022/07/24 00:45:30;;;;;;;8.20;6.10;;;22.90;99.90;;;;;;5092803;28;20115;-88
2022/07/24 00:47:56;;;;;;;8.52;6.75;;;22.90;99.90;;;;;;5092726;28;20085;-88
2022/07/24 00:50:22;;;;;;;7.95;6.70;;;22.90;99.90;;;;;;5092608;28;20446;-87
2022/07/24 00:52:49;;;;;;;10.52;6.57;;;22.90;99.90;;;;;;5092783;28;20020;-87
2022/07/24 00:55:15;;;;;;;9.75;7.97;;;22.80;99.90;;;;;;5092329;28;20028;-88
2022/07/24 00:57:43;;;;;;;11.80;7.03;;;22.70;99.90;;;;;;5092009;28;20023;-88
2022/07/24 01:00:10;;;;;;;12.07;7.35;;;22.70;99.90;;;;;;5092689;28;20093;-88
2022/07/24 01:02:40;;;;;;;11.10;7.28;;;22.60;99.90;;;;;;5092177;28;20565;-88
2022/07/24 01:05:08;;;;;;;14.55;7.32;;;22.50;99.90;;;;;;5092540;28;20020;-87
2022/07/24 01:07:33;;;;;;;9.18;6.78;;;22.50;99.90;;;;;;5092079;28;20028;-88
2022/07/24 01:09:59;;;;;;;15.63;7.68;;;22.50;99.90;;;;;;5091926;28;20024;-88
2022/07/24 01:12:26;;;;;;;13.25;7.38;;;22.50;99.90;;;;;;5092284;28;20103;-88
2022/07/24 01:14:52;;;;;;;11.50;7.30;;;22.50;99.90;;;;;;5092144;28;20617;-88
2022/07/24 01:17:18;;;;;;;9.95;7.75;;;22.50;99.90;;;;;;5092197;28;20087;-87
2022/07/24 01:19:44;;;;;;;10.32;6.10;;;22.50;99.90;;;;;;5091907;28;20047;-88
2022/07/24 01:22:10;;;;;;;9.00;6.85;;;22.50;99.90;;;;;;5091751;28;20028;-88
2022/07/24 01:24:36;;;;;;;9.52;8.02;;;22.40;99.90;;;;;;5096863;28;20035;-89
2022/07/24 01:27:01;;;;;;;11.27;7.25;;;22.40;99.90;;;;;;5110724;28;20031;-88
2022/07/24 01:29:27;;;;;;;11.02;7.90;;;22.30;99.90;;;;;;5112438;28;20035;-88
2022/07/24 01:31:52;;;;;;;8.93;7.55;;;22.20;99.90;;;;;;5100503;28;20024;-88
2022/07/24 01:34:18;;;;;;;10.23;8.48;;;22.20;99.90;;;;;;5091464;28;20035;-88
2022/07/24 01:36:44;;;;;;;14.07;8.20;;;22.20;99.90;;;;;;5091550;28;20028;-88
2022/07/24 01:39:09;;;;;;;11.88;7.32;;;22.10;99.90;;;;;;5092866;28;20035;-88
2022/07/24 01:41:35;;;;;;;10.55;7.20;;;22.10;99.90;;;;;;5085341;28;20496;-89
2022/07/24 01:44:01;;;;;;;9.00;7.68;;;22.10;99.90;;;;;;5071359;28;20029;-88
2022/07/24 01:46:27;;;;;;;12.90;7.55;;;22.10;99.90;;;;;;5080611;28;20024;-89
2022/07/24 01:48:52;;;;;;;15.45;8.88;;;22.10;99.90;;;;;;5091449;28;20035;-89
2022/07/24 01:51:18;;;;;;;10.43;6.88;;;22.10;99.90;;;;;;5091287;28;20115;-89
2022/07/24 01:53:43;;;;;;;10.60;6.65;;;22.10;99.90;;;;;;5090885;28;20028;-91
2022/07/24 01:56:09;;;;;;;13.00;6.53;;;22.20;99.90;;;;;;5091895;28;20039;-89
2022/07/24 01:58:35;;;;;;;10.25;6.18;;;22.30;99.90;;;;;;5091364;28;20024;-92
2022/07/24 02:01:00;;;;;;;10.30;6.88;;;22.30;99.90;;;;;;5090897;28;20035;-92
2022/07/24 02:03:26;;;;;;;9.00;6.95;;;22.30;99.90;;;;;;5091038;28;20045;-89
2022/07/24 02:05:52;;;;;;;9.10;6.45;;;22.40;99.90;;;;;;5090617;28;20020;-89
2022/07/24 02:08:17;;;;;;;7.85;6.55;;;22.50;99.90;;;;;;5092055;28;20176;-89
2022/07/24 02:10:43;;;;;;;9.02;5.72;;;22.50;99.90;;;;;;5090988;28;20105;-88
2022/07/24 02:13:09;;;;;;;9.30;5.30;;;22.50;99.90;;;;;;5089537;28;20472;-87
2022/07/24 02:15:34;;;;;;;7.63;6.00;;;22.50;99.90;;;;;;5090205;28;20024;-86
2022/07/24 02:18:02;;;;;;;6.32;5.00;;;22.50;99.90;;;;;;5090085;28;20393;-87
2022/07/24 02:20:28;;;;;;;6.35;5.28;;;22.50;99.90;;;;;;5091302;28;20020;-85
2022/07/24 02:22:54;;;;;;;10.43;5.13;;;22.50;99.90;;;;;;5090059;28;20123;-85
2022/07/24 02:25:21;;;;;;;11.38;5.53;;;22.50;99.90;;;;;;5090026;28;20559;-86
2022/07/24 02:27:47;;;;;;;7.55;5.43;;;22.50;99.90;;;;;;5091077;28;20061;-86
2022/07/24 02:30:18;;;;;;;6.18;5.38;;;22.50;99.90;;;;;;5090979;28;20028;-86
2022/07/24 02:32:44;;;;;;;7.10;4.88;;;22.50;99.90;;;;;;5090641;28;20469;-86
2022/07/24 02:35:10;;;;;;;9.15;4.82;;;22.60;99.90;;;;;;5089960;28;20078;-86
2022/07/24 02:37:41;;;;;;;6.85;4.35;;;22.60;99.90;;;;;;5089383;28;20020;-85
2022/07/24 02:40:08;;;;;;;9.65;5.30;;;22.60;99.90;;;;;;5089243;28;20074;-87
2022/07/24 02:42:35;;;;;;;11.20;4.75;;;22.60;99.90;;;;;;5089334;28;20028;-86
2022/07/24 02:45:01;;;;;;;15.70;6.07;;;22.60;99.90;;;;;;5089758;28;20056;-88
2022/07/24 02:47:26;;;;;;;10.20;6.05;;;22.60;99.90;;;;;;5090070;28;20055;-92
2022/07/24 02:49:52;;;;;;;8.68;6.43;;;22.60;99.90;;;;;;5090014;28;20062;-88
2022/07/24 02:52:17;;;;;;;7.53;6.63;;;22.60;99.90;;;;;;5090230;28;20126;-91
2022/07/24 02:54:43;;;;;;;8.65;5.43;;;22.60;99.90;;;;;;5092090;28;20028;-91
2022/07/24 02:57:09;;;;;;;14.57;5.85;;;22.60;99.90;;;;;;5090306;28;20568;-91
2022/07/24 02:59:35;;;;;;;7.13;5.10;;;22.70;99.90;;;;;;5090840;28;20496;-91
2022/07/24 03:02:00;;;;;;;8.43;5.53;;;22.70;99.90;;;;;;5079684;28;20174;-90
2022/07/24 03:04:26;;;;;;;7.60;5.10;;;22.70;99.90;;;;;;5070807;28;20066;-90
2022/07/24 03:06:52;;;;;;;11.77;5.47;;;22.70;99.90;;;;;;5069861;28;20025;-88
2022/07/24 03:09:17;;;;;;;11.60;5.50;;;22.70;99.90;;;;;;5074279;28;20027;-89
2022/07/24 03:11:43;;;;;;;9.43;4.78;;;22.60;99.90;;;;;;5090195;28;20028;-89
2022/07/24 03:14:09;;;;;;;8.05;5.00;;;22.60;99.90;;;;;;5089705;28;20027;-89
2022/07/24 03:16:34;;;;;;;7.82;5.10;;;22.60;99.90;;;;;;5090121;28;20042;-89
2022/07/24 03:19:00;;;;;;;7.68;5.32;;;22.60;99.90;;;;;;5090986;28;20028;-94
2022/07/24 03:21:26;;;;;;;8.25;5.90;;;22.70;99.90;;;;;;5089814;28;20035;-90
2022/07/24 03:23:51;;;;;;;8.25;6.10;;;22.60;99.90;;;;;;5090163;28;20508;-89
2022/07/24 03:26:17;;;;;;;6.85;5.50;;;22.60;99.90;;;;;;5089919;28;20024;-89
2022/07/24 03:28:42;;;;;;;6.28;5.50;;;22.60;99.90;;;;;;5089874;28;20045;-88
2022/07/24 03:31:08;;;;;;;8.10;5.28;;;22.60;99.90;;;;;;5089859;28;20028;-88
2022/07/24 03:33:34;;;;;;;9.13;5.05;;;22.60;99.90;;;;;;5089491;28;20062;-89
2022/07/24 03:36:00;;;;;;;6.85;5.05;;;22.60;99.90;;;;;;5088180;28;20053;-89
2022/07/24 03:38:26;;;;;;;7.28;5.72;;;22.70;99.90;;;;;;5087255;28;20410;-89
2022/07/24 03:40:52;;;;;;;7.60;5.07;;;22.70;99.90;;;;;;5088942;28;20032;-89
2022/07/24 03:43:17;;;;;;;8.05;5.22;;;22.70;99.90;;;;;;5090001;28;20036;-88
2022/07/24 03:45:43;;;;;;;5.40;4.75;;;22.80;99.90;;;;;;5089402;28;20029;-89
2022/07/24 03:48:09;;;;;;;11.15;5.90;;;22.80;99.90;;;;;;5090110;28;20110;-88
2022/07/24 03:50:35;;;;;;;10.45;5.50;;;22.80;99.90;;;;;;5093391;28;20384;-88
2022/07/24 03:53:01;;;;;;;8.18;5.38;;;22.80;99.90;;;;;;5092502;28;20032;-87
2022/07/24 03:55:26;;;;;;;11.50;5.60;;;22.80;99.90;;;;;;5093410;28;20047;-88
2022/07/24 03:57:52;;;;;;;9.70;5.47;;;22.90;99.90;;;;;;5093436;28;20056;-88
2022/07/24 04:00:18;;;;;;;10.95;5.15;;;22.90;99.90;;;;;;5093656;28;20430;-88
2022/07/24 04:02:44;;;;;;;8.93;5.47;;;22.90;99.90;;;;;;5093178;28;20454;-88
2022/07/24 04:05:10;;;;;;;8.35;4.97;;;23.00;99.90;;;;;;5093120;28;20112;-88
2022/07/24 04:07:36;;;;;;;17.52;5.80;;;23.10;99.90;;;;;;5094282;28;20032;-89
2022/07/24 04:10:04;;;;;;;6.80;5.38;;;23.20;99.90;;;;;;5093004;28;20031;-93
2022/07/24 04:12:30;;;;;;;6.53;5.70;;;23.30;99.90;;;;;;5093144;28;20032;-87
2022/07/24 04:14:56;;;;;;;11.68;6.00;;;23.50;99.90;;;;;;5091784;28;20081;-89
2022/07/24 04:17:22;;;;;;;8.82;5.45;;;23.60;99.90;;;;;;5088029;28;20048;-88
2022/07/24 04:19:47;;;;;;;13.85;6.40;;;23.70;99.90;;;;;;5072657;28;20546;-89
2022/07/24 04:22:13;;;;;;;13.25;6.35;;;23.80;99.90;;;;;;5072854;28;20867;-89
2022/07/24 04:24:39;;;;;;;8.48;6.15;;;23.80;99.90;;;;;;5072651;28;20020;-90
2022/07/24 04:27:05;;;;;;;7.20;6.22;;;23.90;99.90;;;;;;5091739;28;20032;-88
2022/07/24 04:29:30;;;;;;;8.77;5.57;;;23.90;99.90;;;;;;5092964;28;20024;-88
2022/07/24 04:31:56;;;;;;;7.85;6.13;;;23.80;99.90;;;;;;5093004;28;20028;-88
2022/07/24 04:34:22;;;;;;;8.63;5.80;;;23.70;99.90;;;;;;5092209;28;20020;-86
2022/07/24 04:36:47;;;;;;;6.70;5.72;;;23.60;99.90;;;;;;5092485;28;20028;-88
2022/07/24 04:39:13;;;;;;;8.15;5.68;;;23.50;99.90;;;;;;5092985;28;20031;-85
2022/07/24 04:41:39;;;;;;;11.63;6.28;;;23.50;99.90;;;;;;5092274;28;20039;-91
2022/07/24 04:44:05;;;;;;;10.10;6.40;;;23.40;99.90;;;;;;5093239;28;20024;-92
2022/07/24 04:46:31;;;;;;;7.82;5.95;;;23.40;99.90;;;;;;5092902;28;20392;-91
2022/07/24 04:48:57;;;;;;;8.95;6.07;;;23.30;99.90;;;;;;5092999;28;20028;-92
2022/07/24 04:51:22;;;;;;;13.60;5.97;;;23.30;99.90;;;;;;5092717;28;20027;-92
2022/07/24 04:53:48;;;;;;;12.30;6.68;;;23.30;99.90;;;;;;5092383;28;20449;-92
2022/07/24 04:56:14;;;;;;;10.80;6.32;;;23.40;99.90;;;;;;5093030;28;20030;-92
2022/07/24 04:58:39;;;;;;;8.27;5.95;;;23.60;99.90;;;;;;5092870;28;20032;-89
2022/07/24 05:01:05;;;;;;;12.25;6.38;;;23.80;99.90;;;;;;5092463;28;20081;-91
2022/07/24 05:03:31;;;;;;;7.85;5.70;;;24.00;99.90;;;;;;5092666;28;20054;-90
2022/07/24 05:05:57;;;;;;;9.68;6.03;;;24.20;99.90;;;;;;5094350;28;20408;-90
2022/07/24 05:08:22;;;;;;;7.43;6.10;;;24.40;99.90;;;;;;5093441;28;20077;-91
2022/07/24 05:10:48;;;;;;;9.25;5.78;;;24.50;99.90;;;;;;5092478;28;20434;-91
2022/07/24 05:13:13;;;;;;;13.43;6.65;;;24.70;99.90;;;;;;5092360;28;20608;-94
2022/07/24 05:15:39;;;;;;;6.97;5.53;;;24.80;99.90;;;;;;5092084;28;20040;-91
2022/07/24 05:18:05;;;;;;;9.48;6.10;;;24.90;99.90;;;;;;5092523;28;20024;-91
2022/07/24 05:20:30;;;;;;;8.40;5.75;;;25.10;99.90;;;;;;5092698;28;20058;-89
2022/07/24 05:22:56;;;;;;;8.10;5.43;;;25.30;99.90;;;;;;5096482;28;20036;-90
2022/07/24 05:25:22;;;;;;;9.75;5.50;;;25.50;99.90;;;;;;5093506;28;20020;-90
2022/07/24 05:27:47;;;;;;;6.97;5.70;;;25.90;99.90;;;;;;5094432;28;20032;-90
2022/07/24 05:30:13;;;;;;;11.70;5.10;;;26.20;99.90;;;;;;5093306;28;20024;-90
2022/07/24 05:32:39;;;;;;;7.30;5.72;;;26.40;99.90;;;;;;5093445;28;20020;-89
2022/07/24 05:35:05;;;;;;;9.15;5.20;;;26.50;99.90;;;;;;5092786;28;20522;-88
2022/07/24 05:37:31;;;;;;;8.45;5.57;;;26.40;99.90;;;;;;5092062;28;20575;-87
2022/07/24 05:39:56;;;;;;;8.75;6.32;;;26.50;99.90;;;;;;5093160;28;20118;-93
2022/07/24 05:42:22;;;;;;;10.13;5.47;;;26.50;99.90;;;;;;5093172;28;20081;-93
2022/07/24 05:44:48;;;;;;;10.73;5.85;;;26.50;99.90;;;;;;5106624;28;20016;-92
2022/07/24 05:47:13;;;;;;;9.45;5.03;;;26.40;99.90;;;;;;5114458;28;20013;-92
2022/07/24 05:49:39;;;;;;;11.50;5.50;;;26.30;99.90;;;;;;5114082;28;20036;-86
2022/07/24 05:52:05;;;;;;;6.63;4.88;;;26.40;99.90;;;;;;5097065;28;20020;-89
2022/07/24 05:54:30;;;;;;;6.50;5.47;;;26.40;99.90;;;;;;5093704;28;20020;-89
2022/07/24 05:56:56;;;;;;;6.45;4.63;;;26.70;99.90;;;;;;5093484;28;20070;-88
2022/07/24 05:59:22;;;;;;;8.50;4.75;;;27.30;99.30;;;;;;5091973;28;20381;-88
2022/07/24 06:01:47;;;;;;;12.25;5.47;;;27.70;98.70;;;;;;5089949;28;20032;-86
2022/07/24 06:04:13;;;;;;;8.23;5.18;;;28.00;98.00;;;;;;5089774;28;20032;-85
2022/07/24 06:06:39;;;;;;;14.35;5.13;;;28.00;97.80;;;;;;5089224;28;20703;-86
2022/07/24 06:09:04;;;;;;;9.73;6.75;;;28.00;97.40;;;;;;5090001;28;20020;-87
2022/07/24 06:11:30;;;;;;;14.13;7.25;;;28.00;97.30;;;;;;5091541;28;20373;-89
2022/07/24 06:13:55;;;;;;;13.02;8.23;;;28.00;97.20;;;;;;5091872;28;20489;-88
2022/07/24 06:16:21;;;;;;;11.20;6.55;;;27.90;97.20;;;;;;5075300;28;20397;-86
2022/07/24 06:18:47;;;;;;;9.52;7.00;;;28.00;96.60;;;;;;5070648;28;20032;-87
2022/07/24 06:21:13;;;;;;;10.70;6.97;;;28.20;96.10;;;;;;5073806;28;20035;-87
2022/07/24 06:23:38;;;;;;;7.63;4.93;;;28.20;96.20;;;;;;5090691;28;20032;-88
2022/07/24 06:26:04;;;;;;;5.45;4.55;;;28.30;95.40;;;;;;5091183;28;20028;-88
2022/07/24 06:28:30;;;;;;;6.05;5.22;;;28.50;95.30;;;;;;5090470;28;20028;-88
2022/07/24 06:30:55;;;;;;;8.02;5.78;;;28.70;95.10;;;;;;5090814;28;20027;-88
2022/07/24 06:33:21;;;;;;;13.23;6.15;;;28.80;94.40;;;;;;5089650;28;20020;-86
2022/07/24 06:35:47;;;;;;;8.68;5.00;;;28.80;94.90;;;;;;5089712;28;20065;-87
2022/07/24 06:38:12;;;;;;;14.02;7.00;;;28.80;94.80;;;;;;5090138;28;20051;-89
2022/07/24 06:40:38;;;;;;;6.50;5.40;;;28.80;94.50;;;;;;5089529;28;20020;-88
2022/07/24 06:43:04;;;;;;;10.45;5.00;;;28.80;94.70;;;;;;5089427;28;20204;-88
2022/07/24 06:45:33;;;;;;;7.32;5.07;;;28.90;94.20;;;;;;5091411;28;20028;-88
2022/07/24 06:48:03;;;;;;;6.10;5.03;;;29.70;93.50;;;;;;5089452;28;20036;-84
2022/07/24 06:50:29;;;;;;;7.47;5.85;;;31.10;91.50;;;;;;5090385;28;20436;-86
2022/07/24 06:52:55;;;;;;;8.25;4.70;;;32.40;87.80;;;;;;5089725;28;20117;-85
2022/07/24 06:55:21;;;;;;;9.65;4.22;;;33.40;80.90;;;;;;5090738;28;20065;-87
2022/07/24 06:57:47;;;;;;;7.63;4.28;;;33.80;75.60;;;;;;5089685;28;20024;-89
2022/07/24 07:00:13;;;;;;;4.63;4.07;;;33.90;71.90;;;;;;5087522;28;20527;-87
2022/07/24 07:02:39;;;;;;;6.97;4.60;;;33.80;69.10;;;;;;5086536;28;20095;-90
2022/07/24 07:05:07;;;;;;;8.32;4.88;;;33.80;67.70;;;;;;5090172;28;20480;-92
2022/07/24 07:07:35;;;;;;;6.45;4.93;;;34.20;60.90;;;;;;5090669;28;20030;-91
2022/07/24 07:10:01;;;;;;;6.00;5.10;;;34.10;57.30;;;;;;5090978;28;20077;-86
2022/07/24 07:12:27;;;;;;;5.40;4.90;;;33.60;56.90;;;;;;5091400;28;20040;-86
2022/07/24 07:14:53;;;;;;;6.72;5.20;;;33.00;58.10;;;;;;5089826;28;20020;-87
2022/07/24 07:17:19;;;;;;;6.15;4.65;;;32.60;58.20;;;;;;5089633;28;20032;-87
2022/07/24 07:19:44;;;;;;;6.85;5.00;;;32.50;58.70;;;;;;5090111;28;20114;-87
2022/07/24 07:22:10;;;;;;;7.78;4.85;;;32.40;61.00;;;;;;5089874;28;20032;-87
2022/07/24 07:24:36;;;;;;;6.60;4.80;;;32.60;61.40;;;;;;5092128;28;20059;-87
2022/07/24 07:27:03;;;;;;;6.43;5.07;;;32.60;60.40;;;;;;5093955;28;20115;-88
2022/07/24 07:29:29;;;;;;;5.70;4.50;;;33.00;59.80;;;;;;5093581;28;20445;-88
2022/07/24 07:31:54;;;;;;;5.47;4.55;;;33.70;59.30;;;;;;5093645;28;20135;-88
2022/07/24 07:34:20;;;;;;;6.65;4.50;;;34.60;57.50;;;;;;5093480;28;20032;-88
2022/07/24 07:36:46;;;;;;;5.88;4.45;;;34.80;54.80;;;;;;5093448;28;20031;-88
2022/07/24 07:39:11;;;;;;;6.05;5.00;;;35.00;54.40;;;;;;5093694;28;20039;-87
2022/07/24 07:41:37;;;;;;;5.40;4.85;;;35.40;53.90;;;;;;5093694;28;20052;-87
2022/07/24 07:44:03;;;;;;;5.07;4.57;;;35.80;53.00;;;;;;5093482;28;20113;-88
2022/07/24 07:46:29;;;;;;;7.07;5.13;;;35.60;52.00;;;;;;5095011;28;20109;-88
2022/07/24 07:48:55;;;;;;;7.93;4.57;;;35.80;51.70;;;;;;5092819;28;20073;-89
2022/07/24 07:51:22;;;;;;;7.70;4.43;;;35.90;52.30;;;;;;5073934;28;20020;-87
2022/07/24 07:53:48;;;;;;;8.00;5.00;;;35.50;50.40;;;;;;5086888;28;20126;-87
2022/07/24 07:56:14;;;;;;;6.05;4.45;;;35.20;51.50;;;;;;5093535;28;20527;-87
2022/07/24 07:58:40;;;;;;;7.90;4.47;;;35.10;51.30;;;;;;5094307;28;20040;-88
2022/07/24 08:01:06;;;;;;;5.25;4.60;;;35.20;51.50;;;;;;5093114;28;20128;-88
2022/07/24 08:03:31;;;;;;;5.32;4.60;;;35.40;51.00;;;;;;5092758;28;20048;-88
2022/07/24 08:05:57;;;;;;;8.85;4.57;;;35.70;50.90;;;;;;5093203;28;20019;-88
2022/07/24 08:08:22;;;;;;;5.45;4.30;;;35.90;49.00;;;;;;5093234;28;20450;-90
2022/07/24 08:10:48;;;;;;;5.32;4.55;;;35.80;49.60;;;;;;5093028;28;20028;-90
2022/07/24 08:13:14;;;;;;;6.05;4.90;;;36.30;46.50;;;;;;5092856;28;20074;-88
2022/07/24 08:15:41;;;;;;;8.50;5.38;;;36.00;47.30;;;;;;5091178;28;20046;-88
2022/07/24 08:18:07;;;;;;;8.40;4.88;;;36.10;45.90;;;;;;5083342;28;20031;-88
2022/07/24 08:20:33;;;;;;;10.43;4.68;;;35.80;46.70;;;;;;5091241;28;20099;-88
2022/07/24 08:22:58;;;;;;;6.90;4.80;;;36.00;47.00;;;;;;5092307;28;20537;-88
2022/07/24 08:25:24;;;;;;;8.63;5.00;;;36.20;45.80;;;;;;5093062;28;20083;-87
2022/07/24 08:27:49;;;;;;;6.00;4.72;;;36.70;45.80;;;;;;5092966;28;20404;-88
2022/07/24 08:30:15;;;;;;;7.30;4.90;;;37.10;44.80;;;;;;5092908;28;20068;-88
2022/07/24 08:32:41;;;;;;;8.10;4.97;;;37.20;44.10;;;;;;5092760;28;20088;-87
2022/07/24 08:35:07;;;;;;;7.68;5.28;;;37.20;44.80;;;;;;5091180;28;20187;-89
2022/07/24 08:37:40;;;;;;;9.55;5.13;;;37.30;44.60;;;;;;5091663;28;20031;-87
2022/07/24 08:40:08;;;;;;;8.13;4.88;;;37.70;43.80;;;;;;5091816;28;20028;-88
2022/07/24 08:42:35;;;;;;;6.18;5.10;;;37.40;43.10;;;;;;5093122;28;20044;-86
2022/07/24 08:45:01;;;;;;;8.18;5.07;;;37.20;43.10;;;;;;5093304;28;20418;-87
2022/07/24 08:47:28;;;;;;;6.82;4.82;;;37.00;42.50;;;;;;5093457;28;20081;-87
2022/07/24 08:49:55;;;;;;;6.57;4.72;;;36.80;43.50;;;;;;5092218;28;20052;-86
2022/07/24 08:52:24;;;;;;;10.52;4.88;;;37.00;43.40;;;;;;5092727;28;20404;-86
2022/07/24 08:54:50;;;;;;;8.95;5.20;;;36.90;42.10;;;;;;5091884;28;20095;-87
2022/07/24 08:57:16;;;;;;;8.43;4.70;;;36.50;41.60;;;;;;5092483;28;20118;-86
2022/07/24 08:59:42;;;;;;;8.43;5.38;;;35.80;43.90;;;;;;5091102;28;20032;-86
2022/07/24 09:02:08;;;;;;;11.00;4.47;;;35.50;45.80;;;;;;5092466;28;20056;-87
2022/07/24 09:04:42;;;;;;;12.38;5.78;;;35.80;45.30;;;;;;5101792;28;20451;-88
2022/07/24 09:07:12;;;;;;;6.03;5.30;;;36.40;43.80;;;;;;5112400;28;20031;-87
2022/07/24 09:09:40;;;;;;;6.80;5.03;;;36.60;43.60;;;;;;5104887;28;20031;-87
2022/07/24 09:12:14;;;;;;;13.50;7.00;;;36.70;43.80;;;;;;5077776;28;20051;-87
2022/07/24 09:14:43;;;;;;;9.23;8.30;;;36.80;43.00;;;;;;5071937;28;20115;-87
2022/07/24 09:17:14;;;;;;;5.00;4.50;;;36.30;41.90;;;;;;5073773;28;20580;-87
2022/07/24 09:19:53;;;;;;;5.45;4.75;;;35.90;42.50;;;;;;5091504;28;20537;-86
2022/07/24 09:22:40;;;;;;;5.32;4.50;;;36.00;42.50;;;;;;5091499;28;20085;-87
2022/07/24 09:25:15;;;;;;;5.47;4.85;;;36.20;43.50;;;;;;5091710;28;20027;-88
2022/07/24 09:27:50;;;;;;;6.95;4.47;;;36.10;41.80;;;;;;5090036;28;20119;-86
2022/07/24 09:30:27;;;;;;;;;;;35.80;42.30;;;;;;5071407;28;20500;-88
2022/07/24 09:32:57;;;;;;;7.05;4.93;;;35.10;42.90;;;;;;5072777;28;19986;-87
2022/07/24 09:35:31;;;;;;;5.07;4.20;;;34.60;44.10;;;;;;5091387;28;20024;-87
2022/07/24 09:37:58;;;;;;;8.75;4.28;;;34.70;44.50;;;;;;5091226;28;20032;-87
2022/07/24 09:40:30;;;;;;;6.22;4.30;;;35.30;44.30;;;;;;5092483;28;20085;-86
2022/07/24 09:43:14;;;;;;;6.95;4.72;;;35.80;42.10;;;;;;5091228;28;20054;-87
2022/07/24 09:45:57;;;;;;;6.40;4.25;;;36.10;42.10;;;;;;5090721;28;20024;-87
2022/07/24 09:48:31;;;;;;;7.95;3.85;;;36.20;41.30;;;;;;5090893;28;20104;-87
2022/07/24 09:51:00;;;;;;;5.38;4.03;;;36.40;41.10;;;;;;5092825;28;20032;-88
2022/07/24 09:53:29;;;;;;;4.57;4.18;;;36.60;40.30;;;;;;5090821;28;20035;-86
2022/07/24 09:56:14;;;;;;;7.43;3.83;;;36.10;39.90;;;;;;5092382;28;20020;-87
2022/07/24 09:58:45;;;;;;;10.07;7.75;;;35.70;40.40;;;;;;5091352;28;20366;-86
2022/07/24 10:01:13;;;;;;;8.23;4.63;;;35.10;39.90;;;;;;5091320;28;20055;-88
2022/07/24 10:03:40;;;;;;;5.75;3.95;;;34.70;41.30;;;;;;5094934;28;20061;-88
2022/07/24 10:06:09;;;;;;;5.38;4.20;;;34.90;39.30;;;;;;5096300;28;20637;-89
2022/07/24 10:08:36;;;;;;;5.63;3.20;;;35.00;39.30;;;;;;5098398;28;20397;-87
2022/07/24 10:11:02;;;;;;;4.68;3.63;;;34.70;38.00;;;;;;5092443;28;20469;-87
2022/07/24 10:13:29;;;;;;;7.28;3.97;;;34.40;39.10;;;;;;5090959;28;20111;-86
2022/07/24 10:16:13;;;;;;;7.57;4.40;;;34.10;40.30;;;;;;5092962;28;20105;-86
2022/07/24 10:18:52;;;;;;;7.22;3.85;;;33.80;40.20;;;;;;5096872;28;20743;-86
2022/07/24 10:21:26;;;;;;;7.95;3.90;;;33.70;41.90;;;;;;5093742;28;20156;-86
2022/07/24 10:24:04;;;;;;;6.07;4.30;;;33.80;42.20;;;;;;5091075;28;20097;-87
2022/07/24 10:26:36;;;;;;;4.35;3.95;;;33.90;42.00;;;;;;5088303;28;20051;-87
2022/07/24 10:29:11;;;;;;;5.10;4.60;;;34.00;42.20;;;;;;5087103;28;20480;-87
2022/07/24 10:31:40;;;;;;;4.80;3.90;;;33.90;41.40;;;;;;5069970;28;20025;-87
2022/07/24 10:34:15;;;;;;;4.82;4.32;;;33.70;41.60;;;;;;5069950;28;20020;-87
2022/07/24 10:37:20;;;;;;;7.90;4.13;;;33.50;42.90;;;;;;5071528;28;20020;-86
2022/07/24 10:40:09;;;;;;;4.72;4.22;;;33.50;43.90;;;;;;5051959;28;20112;-87
2022/07/24 10:43:09;;;;;;;7.20;5.15;;;33.20;43.30;;;;;;5080442;28;20028;-88
2022/07/24 10:45:44;;;;;;;6.72;4.30;;;33.00;43.90;;;;;;5078814;28;20024;-89
2022/07/24 10:48:25;;;;;;;5.30;4.10;;;32.80;44.70;;;;;;5091142;28;20028;-88
2022/07/24 10:51:17;;;;;;;6.18;4.82;;;32.50;44.20;;;;;;5091221;28;20302;-88
2022/07/24 10:53:49;;;;;;;8.05;6.40;;;32.50;45.30;;;;;;5089702;28;20038;-88
2022/07/24 10:56:18;;;;;;;7.55;4.20;;;32.50;45.40;;;;;;5090632;28;20031;-87
2022/07/24 10:59:09;;;;;;;6.55;4.20;;;32.70;44.90;;;;;;5089372;28;20093;-86
2022/07/24 11:01:45;;;;;;;5.35;4.30;;;33.00;43.70;;;;;;5090677;28;20055;-85
2022/07/24 11:04:23;;;;;;;6.30;4.57;;;33.00;42.20;;;;;;5089729;28;20161;-86
2022/07/24 11:07:08;;;;;;;5.55;4.28;;;33.00;43.70;;;;;;5090062;28;20027;-86
2022/07/24 11:10:07;;;;;;;4.28;3.63;;;33.20;43.30;;;;;;5090948;28;20028;-86
2022/07/24 11:12:40;;;;;;;5.22;4.07;;;33.30;43.40;;;;;;5091195;28;20032;-86
2022/07/24 11:17:50;;;;;;;5.57;4.50;;;33.60;43.00;;;;;;5089867;28;20039;-86
2022/07/24 11:20:18;;;;;;;4.45;4.03;;;33.70;41.90;;;;;;5089689;28;20020;-86
2022/07/24 11:22:49;;;;;;;5.20;4.13;;;33.70;42.50;;;;;;5089483;28;20157;-87
2022/07/24 11:25:18;;;;;;;8.10;4.45;;;33.90;41.60;;;;;;5091210;28;20020;-87
2022/07/24 11:27:48;;;;;;;5.32;3.60;;;33.90;42.60;;;;;;5090899;28;20028;-85
2022/07/24 11:30:15;;;;;;;4.43;3.92;;;34.00;41.50;;;;;;5090990;28;20024;-87
2022/07/24 11:32:42;;;;;;;3.85;3.45;;;34.00;40.80;;;;;;5089972;28;20059;-87
2022/07/24 11:35:08;;;;;;;5.22;4.45;;;34.20;40.60;;;;;;5089704;28;20078;-86
2022/07/24 11:37:38;;;;;;;4.85;3.38;;;34.20;41.50;;;;;;5089936;28;20027;-87
2022/07/24 11:40:08;;;;;;;4.15;3.63;;;34.30;40.50;;;;;;5090341;28;20057;-87
2022/07/24 11:42:35;;;;;;;6.53;3.67;;;34.20;39.50;;;;;;5091297;28;20028;-86
2022/07/24 11:45:03;;;;;;;4.25;3.38;;;34.10;39.10;;;;;;5090464;28;20031;-88
2022/07/24 11:47:29;;;;;;;4.30;3.67;;;34.00;39.10;;;;;;5089919;28;20774;-88
2022/07/24 11:49:59;;;;;;;9.23;3.53;;;33.90;39.80;;;;;;5090125;28;20051;-87
2022/07/24 11:52:27;;;;;;;5.03;3.42;;;33.70;39.00;;;;;;5089758;28;20024;-87
2022/07/24 11:54:58;;;;;;;4.53;2.90;;;33.70;38.90;;;;;;5089717;28;20028;-88
2022/07/24 11:57:26;;;;;;;5.13;3.40;;;33.90;36.50;;;;;;5089679;28;20035;-87
2022/07/24 11:59:53;;;;;;;4.25;3.55;;;33.90;38.00;;;;;;5089858;28;20028;-87
2022/07/24 12:02:19;;;;;;;6.13;3.88;;;33.90;38.30;;;;;;5088893;28;20244;-87
2022/07/24 12:04:47;;;;;;;5.57;2.92;;;33.80;38.00;;;;;;5089289;28;20038;-87
2022/07/24 12:07:25;;;;;;;5.00;3.13;;;33.70;38.80;;;;;;5089615;28;20116;-87
2022/07/24 12:09:57;;;;;;;5.75;3.17;;;33.60;39.00;;;;;;5090667;28;20028;-87
2022/07/24 12:12:27;;;;;;;5.97;3.38;;;33.50;38.00;;;;;;5093454;28;20107;-89
2022/07/24 12:15:13;;;;;;;4.30;2.80;;;33.40;37.80;;;;;;5092720;28;20024;-86
2022/07/24 12:18:01;;;;;;;5.05;2.53;;;33.70;37.00;;;;;;5092140;28;20444;-87
2022/07/24 12:20:36;;;;;;;4.00;3.05;;;33.90;37.50;;;;;;5092665;28;20024;-87
2022/07/24 12:23:04;;;;;;;4.05;2.83;;;34.00;36.90;;;;;;5093152;28;20042;-87
2022/07/24 12:25:30;;;;;;;3.67;2.75;;;34.10;35.90;;;;;;5091973;28;20020;-87
2022/07/24 12:28:02;;;;;;;4.13;2.70;;;34.10;36.20;;;;;;5093884;28;20024;-87
2022/07/24 12:30:30;;;;;;;3.67;2.53;;;34.40;36.20;;;;;;5094256;28;20027;-88
2022/07/24 12:33:06;;;;;;;2.75;2.20;;;34.40;35.40;;;;;;5092716;28;20028;-88
2022/07/24 12:35:59;;;;;;;6.65;2.70;;;34.40;35.20;;;;;;5094931;28;20066;-90
2022/07/24 12:38:32;;;;;;;7.38;3.33;;;34.40;35.50;;;;;;5094044;28;20051;-88
2022/07/24 12:41:13;;;;;;;7.43;3.00;;;34.40;35.20;;;;;;5093938;28;20028;-89
2022/07/24 12:43:50;;;;;;;5.93;3.00;;;34.30;35.60;;;;;;5092406;28;20036;-88
2022/07/24 12:46:17;;;;;;;4.72;2.55;;;34.20;35.20;;;;;;5092717;28;20039;-89
2022/07/24 12:49:02;;;;;;;3.95;2.55;;;34.30;35.50;;;;;;5092517;28;20043;-91
2022/07/24 12:51:49;;;;;;;3.25;2.90;;;34.50;35.90;;;;;;5092737;28;20028;-88
2022/07/24 12:54:21;;;;;;;5.00;2.72;;;34.70;35.10;;;;;;5093517;28;20524;-88